sensor_id;sensor_type;location;lat;lon;timestamp;temperature;humidity
11536;DHT22;5824;49.336;8.652;2023-08-01T00:01:02;18.40;1.00
11536;DHT22;5824;49.336;8.652;2023-08-01T00:03:28;18.40;1.00
11536;DHT22;5824;49.336;8.652;2023-08-01T00:05:54;18.30;1.00
11536;DHT22;5824;49.336;8.652;2023-08-01T00:08:20;18.20;1.00
11536;DHT22;5824;49.336;8.652;2023-08-01T00:10:46;18.20;1.00
11536;DHT22;5824;49.336;8.652;2023-08-01T00:13:12;18.10;1.00
11536;DHT22;5824;49.336;8.652;2023-08-01T00:15:37;18.00;1.00
11536;DHT22;5824;49.336;8.652;2023-08-01T00:18:03;18.10;1.00
11536;DHT22;5824;49.336;8.652;2023-08-01T00:20:28;18.10;1.00
11536;DHT22;5824;49.336;8.652;2023-08-01T00:22:54;18.10;1.00
11536;DHT22;5824;49.336;8.652;2023-08-01T00:25:20;18.10;1.00
11536;DHT22;5824;49.336;8.652;2023-08-01T00:27:45;18.00;1.00
11536;DHT22;5824;49.336;8.652;2023-08-01T00:30:11;18.00;1.00
11536;DHT22;5824;49.336;8.652;2023-08-01T00:32:37;18.00;1.00
11536;DHT22;5824;49.336;8.652;2023-08-01T00:35:03;18.00;1.00
11536;DHT22;5824;49.336;8.652;2023-08-01T00:37:29;17.90;1.00
11536;DHT22;5824;49.336;8.652;2023-08-01T00:39:55;17.90;1.00
11536;DHT22;5824;49.336;8.652;2023-08-01T00:42:20;17.90;1.00
11536;DHT22;5824;49.336;8.652;2023-08-01T00:44:46;17.90;1.00
11536;DHT22;5824;49.336;8.652;2023-08-01T00:47:14;18.00;1.00
11536;DHT22;5824;49.336;8.652;2023-08-01T00:49:39;18.00;1.00
11536;DHT22;5824;49.336;8.652;2023-08-01T00:52:06;18.00;1.00
11536;DHT22;5824;49.336;8.652;2023-08-01T00:54:32;18.00;1.00
11536;DHT22;5824;49.336;8.652;2023-08-01T00:57:03;18.00;1.00
11536;DHT22;5824;49.336;8.652;2023-08-01T00:59:29;18.00;1.00
11536;DHT22;5824;49.336;8.652;2023-08-01T01:01:54;18.00;1.00
11536;DHT22;5824;49.336;8.652;2023-08-01T01:04:20;18.10;1.00
11536;DHT22;5824;49.336;8.652;2023-08-01T01:07:07;18.10;1.00
11536;DHT22;5824;49.336;8.652;2023-08-01T01:09:34;18.10;1.00
11536;DHT22;5824;49.336;8.652;2023-08-01T01:12:00;18.20;1.00
11536;DHT22;5824;49.336;8.652;2023-08-01T01:14:27;18.20;1.00
11536;DHT22;5824;49.336;8.652;2023-08-01T01:16:52;18.20;1.00
11536;DHT22;5824;49.336;8.652;2023-08-01T01:19:18;18.10;1.00
11536;DHT22;5824;49.336;8.652;2023-08-01T01:21:44;18.10;1.00
11536;DHT22;5824;49.336;8.652;2023-08-01T01:24:10;18.00;1.00
11536;DHT22;5824;49.336;8.652;2023-08-01T01:26:37;18.00;1.00
11536;DHT22;5824;49.336;8.652;2023-08-01T01:29:04;18.00;1.00
11536;DHT22;5824;49.336;8.652;2023-08-01T01:31:32;18.00;1.00
11536;DHT22;5824;49.336;8.652;2023-08-01T01:33:58;17.90;1.00
11536;DHT22;5824;49.336;8.652;2023-08-01T01:36:24;17.80;1.00
11536;DHT22;5824;49.336;8.652;2023-08-01T01:38:49;17.90;1.00
11536;DHT22;5824;49.336;8.652;2023-08-01T01:41:15;17.80;1.00
11536;DHT22;5824;49.336;8.652;2023-08-01T01:43:40;17.80;1.00
11536;DHT22;5824;49.336;8.652;2023-08-01T01:46:06;17.80;1.00
11536;DHT22;5824;49.336;8.652;2023-08-01T01:48:31;17.90;1.00
11536;DHT22;5824;49.336;8.652;2023-08-01T01:50:57;17.90;1.00
11536;DHT22;5824;49.336;8.652;2023-08-01T01:53:22;17.90;1.00
11536;DHT22;5824;49.336;8.652;2023-08-01T01:55:48;17.90;1.00
11536;DHT22;5824;49.336;8.652;2023-08-01T01:58:13;17.90;1.00
11536;DHT22;5824;49.336;8.652;2023-08-01T02:00:39;17.90;1.00
11536;DHT22;5824;49.336;8.652;2023-08-01T02:03:04;17.90;1.00
11536;DHT22;5824;49.336;8.652;2023-08-01T02:05:32;17.90;1.00
11536;DHT22;5824;49.336;8.652;2023-08-01T02:07:58;17.90;1.00
11536;DHT22;5824;49.336;8.652;2023-08-01T02:10:24;17.90;1.00
11536;DHT22;5824;49.336;8.652;2023-08-01T02:12:49;17.90;1.00
11536;DHT22;5824;49.336;8.652;2023-08-01T02:15:15;17.90;1.00
11536;DHT22;5824;49.336;8.652;2023-08-01T02:17:40;17.90;1.00
11536;DHT22;5824;49.336;8.652;2023-08-01T02:20:06;17.90;1.00
11536;DHT22;5824;49.336;8.652;2023-08-01T02:22:32;17.90;1.00
11536;DHT22;5824;49.336;8.652;2023-08-01T02:24:58;17.90;1.00
11536;DHT22;5824;49.336;8.652;2023-08-01T02:27:23;17.90;1.00
11536;DHT22;5824;49.336;8.652;2023-08-01T02:29:49;17.90;1.00
11536;DHT22;5824;49.336;8.652;2023-08-01T02:32:16;17.90;1.00
11536;DHT22;5824;49.336;8.652;2023-08-01T02:34:42;17.90;1.00
11536;DHT22;5824;49.336;8.652;2023-08-01T02:37:07;17.90;1.00
11536;DHT22;5824;49.336;8.652;2023-08-01T02:39:33;17.90;1.00
11536;DHT22;5824;49.336;8.652;2023-08-01T02:41:58;17.90;1.00
11536;DHT22;5824;49.336;8.652;2023-08-01T02:44:24;17.90;1.00
11536;DHT22;5824;49.336;8.652;2023-08-01T02:46:49;17.90;1.00
11536;DHT22;5824;49.336;8.652;2023-08-01T02:49:15;17.90;1.00
11536;DHT22;5824;49.336;8.652;2023-08-01T02:51:40;17.90;1.00
11536;DHT22;5824;49.336;8.652;2023-08-01T02:54:06;17.90;1.00
11536;DHT22;5824;49.336;8.652;2023-08-01T02:56:31;18.00;1.00
11536;DHT22;5824;49.336;8.652;2023-08-01T02:58:57;18.00;1.00
11536;DHT22;5824;49.336;8.652;2023-08-01T03:01:22;18.00;1.00
11536;DHT22;5824;49.336;8.652;2023-08-01T03:03:48;18.00;1.00
11536;DHT22;5824;49.336;8.652;2023-08-01T03:06:13;18.00;1.00
11536;DHT22;5824;49.336;8.652;2023-08-01T03:08:39;18.00;1.00
11536;DHT22;5824;49.336;8.652;2023-08-01T03:11:05;18.00;1.00
11536;DHT22;5824;49.336;8.652;2023-08-01T03:13:31;18.00;1.00
11536;DHT22;5824;49.336;8.652;2023-08-01T03:15:56;18.00;1.00
11536;DHT22;5824;49.336;8.652;2023-08-01T03:18:22;18.00;1.00
11536;DHT22;5824;49.336;8.652;2023-08-01T03:20:47;18.10;1.00
11536;DHT22;5824;49.336;8.652;2023-08-01T03:23:13;18.00;1.00
11536;DHT22;5824;49.336;8.652;2023-08-01T03:25:38;18.00;1.00
11536;DHT22;5824;49.336;8.652;2023-08-01T03:28:04;18.00;1.00
11536;DHT22;5824;49.336;8.652;2023-08-01T03:30:32;18.00;1.00
11536;DHT22;5824;49.336;8.652;2023-08-01T03:32:57;18.00;1.00
11536;DHT22;5824;49.336;8.652;2023-08-01T03:35:23;18.00;1.00
11536;DHT22;5824;49.336;8.652;2023-08-01T03:37:49;18.00;1.00
11536;DHT22;5824;49.336;8.652;2023-08-01T03:40:14;18.00;1.00
11536;DHT22;5824;49.336;8.652;2023-08-01T03:42:40;18.00;1.00
11536;DHT22;5824;49.336;8.652;2023-08-01T03:45:06;18.00;1.00
11536;DHT22;5824;49.336;8.652;2023-08-01T03:47:32;18.00;1.00
11536;DHT22;5824;49.336;8.652;2023-08-01T03:49:58;17.90;1.00
11536;DHT22;5824;49.336;8.652;2023-08-01T03:52:24;17.90;1.00
11536;DHT22;5824;49.336;8.652;2023-08-01T03:54:53;17.90;1.00
11536;DHT22;5824;49.336;8.652;2023-08-01T03:57:18;17.90;1.00
11536;DHT22;5824;49.336;8.652;2023-08-01T03:59:44;17.90;1.00
11536;DHT22;5824;49.336;8.652;2023-08-01T04:02:11;18.00;1.00
11536;DHT22;5824;49.336;8.652;2023-08-01T04:04:36;17.90;1.00
11536;DHT22;5824;49.336;8.652;2023-08-01T04:07:02;17.90;1.00
11536;DHT22;5824;49.336;8.652;2023-08-01T04:09:27;17.90;1.00
11536;DHT22;5824;49.336;8.652;2023-08-01T04:14:19;17.90;1.00
11536;DHT22;5824;49.336;8.652;2023-08-01T04:16:45;17.90;1.00
11536;DHT22;5824;49.336;8.652;2023-08-01T04:19:10;17.80;1.00
11536;DHT22;5824;49.336;8.652;2023-08-01T04:21:36;17.90;1.00
11536;DHT22;5824;49.336;8.652;2023-08-01T04:24:02;17.90;1.00
11536;DHT22;5824;49.336;8.652;2023-08-01T04:26:27;17.90;1.00
11536;DHT22;5824;49.336;8.652;2023-08-01T04:28:53;17.80;1.00
11536;DHT22;5824;49.336;8.652;2023-08-01T04:31:18;17.90;1.00
11536;DHT22;5824;49.336;8.652;2023-08-01T04:33:43;18.00;1.00
11536;DHT22;5824;49.336;8.652;2023-08-01T04:36:10;18.00;1.00
11536;DHT22;5824;49.336;8.652;2023-08-01T04:38:35;17.90;1.00
11536;DHT22;5824;49.336;8.652;2023-08-01T04:41:01;17.90;1.00
11536;DHT22;5824;49.336;8.652;2023-08-01T04:43:28;17.90;1.00
11536;DHT22;5824;49.336;8.652;2023-08-01T04:45:53;17.90;1.00
11536;DHT22;5824;49.336;8.652;2023-08-01T04:48:19;17.90;1.00
11536;DHT22;5824;49.336;8.652;2023-08-01T04:50:45;17.90;1.00
11536;DHT22;5824;49.336;8.652;2023-08-01T04:53:10;17.90;1.00
11536;DHT22;5824;49.336;8.652;2023-08-01T04:55:36;17.90;1.00
11536;DHT22;5824;49.336;8.652;2023-08-01T04:58:02;17.90;1.00
11536;DHT22;5824;49.336;8.652;2023-08-01T05:00:27;17.90;1.00
11536;DHT22;5824;49.336;8.652;2023-08-01T05:02:53;18.00;1.00
11536;DHT22;5824;49.336;8.652;2023-08-01T05:05:18;18.00;1.00
11536;DHT22;5824;49.336;8.652;2023-08-01T05:07:44;17.90;1.00
11536;DHT22;5824;49.336;8.652;2023-08-01T05:10:10;17.90;1.00
11536;DHT22;5824;49.336;8.652;2023-08-01T05:12:35;17.90;1.00
11536;DHT22;5824;49.336;8.652;2023-08-01T05:15:01;17.90;1.00
11536;DHT22;5824;49.336;8.652;2023-08-01T05:17:26;17.90;1.00
11536;DHT22;5824;49.336;8.652;2023-08-01T05:19:52;17.90;1.00
11536;DHT22;5824;49.336;8.652;2023-08-01T05:22:17;18.00;1.00
11536;DHT22;5824;49.336;8.652;2023-08-01T05:24:43;17.90;1.00
11536;DHT22;5824;49.336;8.652;2023-08-01T05:27:08;17.90;1.00
11536;DHT22;5824;49.336;8.652;2023-08-01T05:29:34;17.90;1.00
11536;DHT22;5824;49.336;8.652;2023-08-01T05:31:59;17.80;1.00
11536;DHT22;5824;49.336;8.652;2023-08-01T05:34:25;17.80;1.00
11536;DHT22;5824;49.336;8.652;2023-08-01T05:36:50;17.70;1.00
11536;DHT22;5824;49.336;8.652;2023-08-01T05:39:16;17.70;1.00
11536;DHT22;5824;49.336;8.652;2023-08-01T05:41:42;17.70;1.00
11536;DHT22;5824;49.336;8.652;2023-08-01T05:44:08;17.60;1.00
11536;DHT22;5824;49.336;8.652;2023-08-01T05:46:34;17.60;1.00
11536;DHT22;5824;49.336;8.652;2023-08-01T05:48:59;17.60;1.00
11536;DHT22;5824;49.336;8.652;2023-08-01T05:51:25;17.50;1.00
11536;DHT22;5824;49.336;8.652;2023-08-01T05:53:50;17.50;1.00
11536;DHT22;5824;49.336;8.652;2023-08-01T05:56:16;17.50;3.20
11536;DHT22;5824;49.336;8.652;2023-08-01T05:58:41;17.60;3.70
11536;DHT22;5824;49.336;8.652;2023-08-01T06:01:07;17.60;7.00
11536;DHT22;5824;49.336;8.652;2023-08-01T06:03:34;17.60;5.00
11536;DHT22;5824;49.336;8.652;2023-08-01T06:05:59;17.70;3.60
11536;DHT22;5824;49.336;8.652;2023-08-01T06:08:25;17.60;1.00
11536;DHT22;5824;49.336;8.652;2023-08-01T06:10:51;17.50;1.00
11536;DHT22;5824;49.336;8.652;2023-08-01T06:13:16;17.40;1.00
11536;DHT22;5824;49.336;8.652;2023-08-01T06:15:42;17.20;1.00
11536;DHT22;5824;49.336;8.652;2023-08-01T06:18:07;17.10;1.00
11536;DHT22;5824;49.336;8.652;2023-08-01T06:20:33;17.10;3.00
11536;DHT22;5824;49.336;8.652;2023-08-01T06:22:59;17.10;6.50
11536;DHT22;5824;49.336;8.652;2023-08-01T06:25:24;17.10;6.20
11536;DHT22;5824;49.336;8.652;2023-08-01T06:27:50;17.30;8.70
11536;DHT22;5824;49.336;8.652;2023-08-01T06:30:15;17.10;10.20
11536;DHT22;5824;49.336;8.652;2023-08-01T06:32:41;17.20;11.30
11536;DHT22;5824;49.336;8.652;2023-08-01T06:35:06;17.20;11.10
11536;DHT22;5824;49.336;8.652;2023-08-01T06:37:32;17.20;10.80
11536;DHT22;5824;49.336;8.652;2023-08-01T06:39:58;17.20;11.40
11536;DHT22;5824;49.336;8.652;2023-08-01T06:42:24;17.10;16.00
11536;DHT22;5824;49.336;8.652;2023-08-01T06:44:50;17.20;11.30
11536;DHT22;5824;49.336;8.652;2023-08-01T06:47:15;17.30;14.90
11536;DHT22;5824;49.336;8.652;2023-08-01T06:49:41;20.30;19.10
11536;DHT22;5824;49.336;8.652;2023-08-01T06:52:07;17.40;17.60
11536;DHT22;5824;49.336;8.652;2023-08-01T06:54:32;17.40;15.30
11536;DHT22;5824;49.336;8.652;2023-08-01T06:56:58;17.20;10.20
11536;DHT22;5824;49.336;8.652;2023-08-01T06:59:25;17.20;15.30
11536;DHT22;5824;49.336;8.652;2023-08-01T07:01:50;17.20;15.60
11536;DHT22;5824;49.336;8.652;2023-08-01T07:04:16;17.20;18.20
11536;DHT22;5824;49.336;8.652;2023-08-01T07:06:42;17.30;21.00
11536;DHT22;5824;49.336;8.652;2023-08-01T07:09:07;17.30;23.50
11536;DHT22;5824;49.336;8.652;2023-08-01T07:11:33;17.40;23.20
11536;DHT22;5824;49.336;8.652;2023-08-01T07:13:59;17.40;20.40
11536;DHT22;5824;49.336;8.652;2023-08-01T07:16:24;17.50;23.10
11536;DHT22;5824;49.336;8.652;2023-08-01T07:18:50;17.50;19.40
11536;DHT22;5824;49.336;8.652;2023-08-01T07:21:16;17.50;16.80
11536;DHT22;5824;49.336;8.652;2023-08-01T07:23:43;17.40;14.80
11536;DHT22;5824;49.336;8.652;2023-08-01T07:26:09;17.80;16.00
11536;DHT22;5824;49.336;8.652;2023-08-01T07:28:34;17.50;13.90
11536;DHT22;5824;49.336;8.652;2023-08-01T07:31:01;17.50;10.10
11536;DHT22;5824;49.336;8.652;2023-08-01T07:33:27;17.60;13.80
11536;DHT22;5824;49.336;8.652;2023-08-01T07:35:52;17.50;6.80
11536;DHT22;5824;49.336;8.652;2023-08-01T07:38:18;17.50;10.10
11536;DHT22;5824;49.336;8.652;2023-08-01T07:40:44;17.60;13.40
11536;DHT22;5824;49.336;8.652;2023-08-01T07:43:09;17.70;12.10
11536;DHT22;5824;49.336;8.652;2023-08-01T07:45:34;17.80;13.60
11536;DHT22;5824;49.336;8.652;2023-08-01T07:48:00;17.80;9.10
11536;DHT22;5824;49.336;8.652;2023-08-01T07:50:26;17.80;6.40
11536;DHT22;5824;49.336;8.652;2023-08-01T07:52:52;17.80;9.70
11536;DHT22;5824;49.336;8.652;2023-08-01T07:55:17;17.80;10.30
11536;DHT22;5824;49.336;8.652;2023-08-01T07:57:44;17.80;10.90
11536;DHT22;5824;49.336;8.652;2023-08-01T08:00:10;17.80;8.80
11536;DHT22;5824;49.336;8.652;2023-08-01T08:02:36;17.90;14.70
11536;DHT22;5824;49.336;8.652;2023-08-01T08:05:01;18.00;16.60
11536;DHT22;5824;49.336;8.652;2023-08-01T08:07:27;18.00;10.80
11536;DHT22;5824;49.336;8.652;2023-08-01T08:09:52;18.00;12.70
11536;DHT22;5824;49.336;8.652;2023-08-01T08:12:21;18.00;10.80
11536;DHT22;5824;49.336;8.652;2023-08-01T08:14:47;18.10;8.00
11536;DHT22;5824;49.336;8.652;2023-08-01T08:17:12;18.20;13.00
11536;DHT22;5824;49.336;8.652;2023-08-01T08:19:38;18.90;10.20
11536;DHT22;5824;49.336;8.652;2023-08-01T08:22:04;18.50;10.90
11536;DHT22;5824;49.336;8.652;2023-08-01T08:24:29;18.60;3.70
11536;DHT22;5824;49.336;8.652;2023-08-01T08:26:55;18.80;5.00
11536;DHT22;5824;49.336;8.652;2023-08-01T08:29:20;19.00;1.00
11536;DHT22;5824;49.336;8.652;2023-08-01T08:31:47;19.30;1.00
11536;DHT22;5824;49.336;8.652;2023-08-01T08:34:12;19.40;1.00
11536;DHT22;5824;49.336;8.652;2023-08-01T08:36:38;19.90;1.00
11536;DHT22;5824;49.336;8.652;2023-08-01T08:39:03;19.90;1.00
11536;DHT22;5824;49.336;8.652;2023-08-01T08:41:33;20.20;1.00
11536;DHT22;5824;49.336;8.652;2023-08-01T08:44:01;20.30;1.00
11536;DHT22;5824;49.336;8.652;2023-08-01T08:46:29;20.30;1.00
11536;DHT22;5824;49.336;8.652;2023-08-01T08:48:57;20.30;1.00
11536;DHT22;5824;49.336;8.652;2023-08-01T08:51:23;20.10;1.00
11536;DHT22;5824;49.336;8.652;2023-08-01T08:53:53;20.00;1.00
11536;DHT22;5824;49.336;8.652;2023-08-01T08:56:20;20.30;1.00
11536;DHT22;5824;49.336;8.652;2023-08-01T08:58:46;21.10;1.00
11536;DHT22;5824;49.336;8.652;2023-08-01T09:01:12;21.10;1.00
11536;DHT22;5824;49.336;8.652;2023-08-01T09:03:38;20.90;1.00
11536;DHT22;5824;49.336;8.652;2023-08-01T09:06:07;21.10;1.00
11536;DHT22;5824;49.336;8.652;2023-08-01T09:08:36;21.00;1.00
11536;DHT22;5824;49.336;8.652;2023-08-01T09:11:03;21.30;1.00
11536;DHT22;5824;49.336;8.652;2023-08-01T09:13:29;22.20;1.00
11536;DHT22;5824;49.336;8.652;2023-08-01T09:15:56;23.20;1.00
11536;DHT22;5824;49.336;8.652;2023-08-01T09:18:22;23.60;1.00
11536;DHT22;5824;49.336;8.652;2023-08-01T09:20:49;24.10;1.00
11536;DHT22;5824;49.336;8.652;2023-08-01T09:23:16;24.20;1.00
11536;DHT22;5824;49.336;8.652;2023-08-01T09:25:42;24.40;1.00
11536;DHT22;5824;49.336;8.652;2023-08-01T09:28:22;25.10;1.00
11536;DHT22;5824;49.336;8.652;2023-08-01T09:30:50;25.70;1.00
11536;DHT22;5824;49.336;8.652;2023-08-01T09:33:16;25.50;1.00
11536;DHT22;5824;49.336;8.652;2023-08-01T09:35:42;25.30;1.00
11536;DHT22;5824;49.336;8.652;2023-08-01T09:38:10;25.70;1.00
11536;DHT22;5824;49.336;8.652;2023-08-01T09:40:38;25.30;1.00
11536;DHT22;5824;49.336;8.652;2023-08-01T09:43:04;24.70;1.00
11536;DHT22;5824;49.336;8.652;2023-08-01T09:45:29;24.50;1.00
11536;DHT22;5824;49.336;8.652;2023-08-01T09:47:55;25.00;1.00
11536;DHT22;5824;49.336;8.652;2023-08-01T09:50:23;25.50;1.00
11536;DHT22;5824;49.336;8.652;2023-08-01T09:52:49;26.40;1.00
11536;DHT22;5824;49.336;8.652;2023-08-01T09:55:31;27.30;1.00
11536;DHT22;5824;49.336;8.652;2023-08-01T09:57:57;28.40;1.00
11536;DHT22;5824;49.336;8.652;2023-08-01T10:00:25;29.00;1.00
11536;DHT22;5824;49.336;8.652;2023-08-01T10:02:52;29.60;1.00
11536;DHT22;5824;49.336;8.652;2023-08-01T10:05:19;29.60;1.00
11536;DHT22;5824;49.336;8.652;2023-08-01T10:07:45;29.20;1.00
11536;DHT22;5824;49.336;8.652;2023-08-01T10:10:12;28.00;1.00
11536;DHT22;5824;49.336;8.652;2023-08-01T10:12:38;26.90;1.00
11536;DHT22;5824;49.336;8.652;2023-08-01T10:15:05;27.90;1.00
11536;DHT22;5824;49.336;8.652;2023-08-01T10:17:31;28.50;1.00
11536;DHT22;5824;49.336;8.652;2023-08-01T10:19:59;27.60;1.00
11536;DHT22;5824;49.336;8.652;2023-08-01T10:22:26;27.00;1.00
11536;DHT22;5824;49.336;8.652;2023-08-01T10:24:51;28.10;1.00
11536;DHT22;5824;49.336;8.652;2023-08-01T10:27:21;29.30;1.00
11536;DHT22;5824;49.336;8.652;2023-08-01T10:30:07;30.30;1.00
11536;DHT22;5824;49.336;8.652;2023-08-01T10:32:36;31.30;1.00
11536;DHT22;5824;49.336;8.652;2023-08-01T10:35:02;32.40;1.00
11536;DHT22;5824;49.336;8.652;2023-08-01T10:37:42;33.70;1.00
11536;DHT22;5824;49.336;8.652;2023-08-01T10:40:08;34.20;1.00
11536;DHT22;5824;49.336;8.652;2023-08-01T10:42:44;34.20;1.00
11536;DHT22;5824;49.336;8.652;2023-08-01T10:45:30;33.60;1.00
11536;DHT22;5824;49.336;8.652;2023-08-01T10:48:07;33.20;1.00
11536;DHT22;5824;49.336;8.652;2023-08-01T10:50:33;33.00;1.00
11536;DHT22;5824;49.336;8.652;2023-08-01T10:53:06;33.00;1.00
11536;DHT22;5824;49.336;8.652;2023-08-01T10:55:40;33.50;1.00
11536;DHT22;5824;49.336;8.652;2023-08-01T10:58:06;33.00;1.00
11536;DHT22;5824;49.336;8.652;2023-08-01T11:00:31;31.80;1.00
11536;DHT22;5824;49.336;8.652;2023-08-01T11:02:57;30.90;1.00
11536;DHT22;5824;49.336;8.652;2023-08-01T11:05:22;31.70;1.00
11536;DHT22;5824;49.336;8.652;2023-08-01T11:07:55;31.80;1.00
11536;DHT22;5824;49.336;8.652;2023-08-01T11:10:21;32.50;1.00
11536;DHT22;5824;49.336;8.652;2023-08-01T11:12:47;33.10;1.00
11536;DHT22;5824;49.336;8.652;2023-08-01T11:15:14;32.80;1.00
11536;DHT22;5824;49.336;8.652;2023-08-01T11:17:52;32.00;1.00
11536;DHT22;5824;49.336;8.652;2023-08-01T11:20:19;31.00;1.00
11536;DHT22;5824;49.336;8.652;2023-08-01T11:22:59;30.40;1.00
11536;DHT22;5824;49.336;8.652;2023-08-01T11:25:40;30.10;1.00
11536;DHT22;5824;49.336;8.652;2023-08-01T11:28:08;29.20;1.00
11536;DHT22;5824;49.336;8.652;2023-08-01T11:30:34;27.50;1.00
11536;DHT22;5824;49.336;8.652;2023-08-01T11:33:01;26.20;1.00
11536;DHT22;5824;49.336;8.652;2023-08-01T11:35:28;25.90;1.00
11536;DHT22;5824;49.336;8.652;2023-08-01T11:37:54;26.70;1.00
11536;DHT22;5824;49.336;8.652;2023-08-01T11:40:20;27.80;1.00
11536;DHT22;5824;49.336;8.652;2023-08-01T11:42:49;29.80;1.00
11536;DHT22;5824;49.336;8.652;2023-08-01T11:45:18;30.90;1.00
11536;DHT22;5824;49.336;8.652;2023-08-01T11:47:47;32.40;1.00
11536;DHT22;5824;49.336;8.652;2023-08-01T11:50:14;32.80;1.00
11536;DHT22;5824;49.336;8.652;2023-08-01T11:52:39;34.00;1.00
11536;DHT22;5824;49.336;8.652;2023-08-01T11:55:05;34.50;1.00
11536;DHT22;5824;49.336;8.652;2023-08-01T11:57:31;35.00;1.00
11536;DHT22;5824;49.336;8.652;2023-08-01T11:59:57;34.60;1.00
11536;DHT22;5824;49.336;8.652;2023-08-01T12:02:23;32.90;1.00
11536;DHT22;5824;49.336;8.652;2023-08-01T12:04:49;31.40;1.00
11536;DHT22;5824;49.336;8.652;2023-08-01T12:07:15;30.20;1.00
11536;DHT22;5824;49.336;8.652;2023-08-01T12:09:41;29.90;1.00
11536;DHT22;5824;49.336;8.652;2023-08-01T12:12:08;28.40;1.00
11536;DHT22;5824;49.336;8.652;2023-08-01T12:14:33;27.50;1.00
11536;DHT22;5824;49.336;8.652;2023-08-01T12:16:59;27.80;1.00
11536;DHT22;5824;49.336;8.652;2023-08-01T12:19:24;27.60;1.00
11536;DHT22;5824;49.336;8.652;2023-08-01T12:21:50;27.00;1.00
11536;DHT22;5824;49.336;8.652;2023-08-01T12:24:15;26.60;1.00
11536;DHT22;5824;49.336;8.652;2023-08-01T12:26:41;27.90;1.00
11536;DHT22;5824;49.336;8.652;2023-08-01T12:29:06;28.10;1.00
11536;DHT22;5824;49.336;8.652;2023-08-01T12:31:33;29.20;1.00
11536;DHT22;5824;49.336;8.652;2023-08-01T12:33:58;29.50;1.00
11536;DHT22;5824;49.336;8.652;2023-08-01T12:36:24;29.60;1.00
11536;DHT22;5824;49.336;8.652;2023-08-01T12:38:50;30.90;1.00
11536;DHT22;5824;49.336;8.652;2023-08-01T12:41:15;30.90;1.00
11536;DHT22;5824;49.336;8.652;2023-08-01T12:43:41;30.60;1.00
11536;DHT22;5824;49.336;8.652;2023-08-01T12:46:07;30.40;1.00
11536;DHT22;5824;49.336;8.652;2023-08-01T12:48:32;30.00;1.00
11536;DHT22;5824;49.336;8.652;2023-08-01T12:50:57;29.70;1.00
11536;DHT22;5824;49.336;8.652;2023-08-01T12:53:23;29.50;1.00
11536;DHT22;5824;49.336;8.652;2023-08-01T12:55:50;28.60;1.00
11536;DHT22;5824;49.336;8.652;2023-08-01T12:58:16;29.00;1.00
11536;DHT22;5824;49.336;8.652;2023-08-01T13:00:43;30.20;1.00
11536;DHT22;5824;49.336;8.652;2023-08-01T13:03:10;31.20;1.00
11536;DHT22;5824;49.336;8.652;2023-08-01T13:05:36;32.60;1.00
11536;DHT22;5824;49.336;8.652;2023-08-01T13:08:03;33.70;1.00
11536;DHT22;5824;49.336;8.652;2023-08-01T13:10:32;33.60;1.00
11536;DHT22;5824;49.336;8.652;2023-08-01T13:12:58;33.30;1.00
11536;DHT22;5824;49.336;8.652;2023-08-01T13:15:25;32.40;1.00
11536;DHT22;5824;49.336;8.652;2023-08-01T13:17:50;32.20;1.00
11536;DHT22;5824;49.336;8.652;2023-08-01T13:20:16;31.80;1.00
11536;DHT22;5824;49.336;8.652;2023-08-01T13:22:44;32.00;1.00
11536;DHT22;5824;49.336;8.652;2023-08-01T13:25:09;31.50;1.00
11536;DHT22;5824;49.336;8.652;2023-08-01T13:27:35;30.70;1.00
11536;DHT22;5824;49.336;8.652;2023-08-01T13:30:02;29.90;1.00
11536;DHT22;5824;49.336;8.652;2023-08-01T13:32:27;29.90;1.00
11536;DHT22;5824;49.336;8.652;2023-08-01T13:34:53;29.60;1.00
11536;DHT22;5824;49.336;8.652;2023-08-01T13:37:18;28.30;1.00
11536;DHT22;5824;49.336;8.652;2023-08-01T13:39:44;27.90;1.00
11536;DHT22;5824;49.336;8.652;2023-08-01T13:42:11;27.30;1.00
11536;DHT22;5824;49.336;8.652;2023-08-01T13:44:37;27.50;1.00
11536;DHT22;5824;49.336;8.652;2023-08-01T13:47:03;29.10;1.00
11536;DHT22;5824;49.336;8.652;2023-08-01T13:49:29;29.40;1.00
11536;DHT22;5824;49.336;8.652;2023-08-01T13:51:54;30.30;1.00
11536;DHT22;5824;49.336;8.652;2023-08-01T13:54:20;31.20;1.00
11536;DHT22;5824;49.336;8.652;2023-08-01T13:56:45;33.20;1.00
11536;DHT22;5824;49.336;8.652;2023-08-01T13:59:11;33.20;1.00
11536;DHT22;5824;49.336;8.652;2023-08-01T14:01:36;33.30;1.00
11536;DHT22;5824;49.336;8.652;2023-08-01T14:04:03;33.50;1.00
11536;DHT22;5824;49.336;8.652;2023-08-01T14:08:55;33.20;1.00
11536;DHT22;5824;49.336;8.652;2023-08-01T14:11:21;32.30;1.00
11536;DHT22;5824;49.336;8.652;2023-08-01T14:13:46;31.40;1.00
11536;DHT22;5824;49.336;8.652;2023-08-01T14:16:12;29.70;1.00
11536;DHT22;5824;49.336;8.652;2023-08-01T14:18:37;29.70;1.00
11536;DHT22;5824;49.336;8.652;2023-08-01T14:21:04;31.50;1.00
11536;DHT22;5824;49.336;8.652;2023-08-01T14:23:30;32.40;1.00
11536;DHT22;5824;49.336;8.652;2023-08-01T14:25:57;33.40;1.00
11536;DHT22;5824;49.336;8.652;2023-08-01T14:28:23;33.60;1.00
11536;DHT22;5824;49.336;8.652;2023-08-01T14:30:49;33.80;1.00
11536;DHT22;5824;49.336;8.652;2023-08-01T14:33:14;33.90;1.00
11536;DHT22;5824;49.336;8.652;2023-08-01T14:35:40;33.20;1.00
11536;DHT22;5824;49.336;8.652;2023-08-01T14:38:06;33.50;1.00
11536;DHT22;5824;49.336;8.652;2023-08-01T14:40:32;33.60;1.00
11536;DHT22;5824;49.336;8.652;2023-08-01T14:42:59;33.30;1.00
11536;DHT22;5824;49.336;8.652;2023-08-01T14:45:25;32.00;1.00
11536;DHT22;5824;49.336;8.652;2023-08-01T14:47:50;30.50;1.00
11536;DHT22;5824;49.336;8.652;2023-08-01T14:50:16;30.60;1.00
11536;DHT22;5824;49.336;8.652;2023-08-01T14:52:42;30.80;1.00
11536;DHT22;5824;49.336;8.652;2023-08-01T14:55:08;32.70;1.00
11536;DHT22;5824;49.336;8.652;2023-08-01T14:57:34;34.20;1.00
11536;DHT22;5824;49.336;8.652;2023-08-01T14:59:59;34.00;1.00
11536;DHT22;5824;49.336;8.652;2023-08-01T15:02:26;33.70;1.00
11536;DHT22;5824;49.336;8.652;2023-08-01T15:04:55;33.60;1.00
11536;DHT22;5824;49.336;8.652;2023-08-01T15:07:22;32.90;1.00
11536;DHT22;5824;49.336;8.652;2023-08-01T15:09:48;32.60;1.00
11536;DHT22;5824;49.336;8.652;2023-08-01T15:12:15;32.40;1.00
11536;DHT22;5824;49.336;8.652;2023-08-01T15:14:41;32.30;1.00
11536;DHT22;5824;49.336;8.652;2023-08-01T15:17:06;32.40;1.00
11536;DHT22;5824;49.336;8.652;2023-08-01T15:19:33;32.80;1.00
11536;DHT22;5824;49.336;8.652;2023-08-01T15:21:58;32.90;1.00
11536;DHT22;5824;49.336;8.652;2023-08-01T15:24:24;31.30;1.00
11536;DHT22;5824;49.336;8.652;2023-08-01T15:26:50;29.20;1.00
11536;DHT22;5824;49.336;8.652;2023-08-01T15:29:15;28.20;1.00
11536;DHT22;5824;49.336;8.652;2023-08-01T15:31:41;28.10;1.00
11536;DHT22;5824;49.336;8.652;2023-08-01T15:34:07;28.90;1.00
11536;DHT22;5824;49.336;8.652;2023-08-01T15:36:34;30.20;1.00
11536;DHT22;5824;49.336;8.652;2023-08-01T15:39:00;30.30;1.00
11536;DHT22;5824;49.336;8.652;2023-08-01T15:41:26;29.20;1.00
11536;DHT22;5824;49.336;8.652;2023-08-01T15:43:51;28.20;1.00
11536;DHT22;5824;49.336;8.652;2023-08-01T15:46:17;27.50;1.00
11536;DHT22;5824;49.336;8.652;2023-08-01T15:48:42;26.80;1.00
11536;DHT22;5824;49.336;8.652;2023-08-01T15:51:08;26.50;1.00
11536;DHT22;5824;49.336;8.652;2023-08-01T15:53:34;26.50;1.00
11536;DHT22;5824;49.336;8.652;2023-08-01T15:56:01;26.40;1.00
11536;DHT22;5824;49.336;8.652;2023-08-01T15:58:28;26.10;1.00